sensor_id;sensor_type;location;lat;lon;timestamp;temperature;humidity
51029;DHT22;37054;52.054;8.600;2023-06-22T00:00:19;22.30;55.40
51029;DHT22;37054;52.054;8.600;2023-06-22T00:02:44;22.30;55.50
51029;DHT22;37054;52.054;8.600;2023-06-22T00:05:10;22.30;55.30
51029;DHT22;37054;52.054;8.600;2023-06-22T00:07:35;22.20;55.30
51029;DHT22;37054;52.054;8.600;2023-06-22T00:10:01;22.20;55.50
51029;DHT22;37054;52.054;8.600;2023-06-22T00:12:26;22.20;55.60
51029;DHT22;37054;52.054;8.600;2023-06-22T00:14:52;22.10;56.00
51029;DHT22;37054;52.054;8.600;2023-06-22T00:17:18;22.20;56.10
51029;DHT22;37054;52.054;8.600;2023-06-22T00:19:43;22.10;55.80
51029;DHT22;37054;52.054;8.600;2023-06-22T00:22:12;22.10;55.80
51029;DHT22;37054;52.054;8.600;2023-06-22T00:24:37;22.10;55.60
51029;DHT22;37054;52.054;8.600;2023-06-22T00:27:03;22.10;55.50
51029;DHT22;37054;52.054;8.600;2023-06-22T00:29:30;22.10;55.40
51029;DHT22;37054;52.054;8.600;2023-06-22T00:31:55;22.00;55.30
51029;DHT22;37054;52.054;8.600;2023-06-22T00:34:21;22.00;55.30
51029;DHT22;37054;52.054;8.600;2023-06-22T00:36:46;22.00;55.20
51029;DHT22;37054;52.054;8.600;2023-06-22T00:39:12;22.00;55.20
51029;DHT22;37054;52.054;8.600;2023-06-22T00:41:37;22.00;55.30
51029;DHT22;37054;52.054;8.600;2023-06-22T00:44:03;22.00;55.40
51029;DHT22;37054;52.054;8.600;2023-06-22T00:46:29;22.00;55.50
51029;DHT22;37054;52.054;8.600;2023-06-22T00:48:54;22.00;55.50
51029;DHT22;37054;52.054;8.600;2023-06-22T00:51:22;22.00;55.50
51029;DHT22;37054;52.054;8.600;2023-06-22T00:53:49;22.00;55.40
51029;DHT22;37054;52.054;8.600;2023-06-22T00:56:15;22.00;55.40
51029;DHT22;37054;52.054;8.600;2023-06-22T00:58:45;22.10;55.50
51029;DHT22;37054;52.054;8.600;2023-06-22T01:01:12;22.10;55.50
51029;DHT22;37054;52.054;8.600;2023-06-22T01:03:39;22.10;55.50
51029;DHT22;37054;52.054;8.600;2023-06-22T01:06:13;22.10;55.40
51029;DHT22;37054;52.054;8.600;2023-06-22T01:08:46;22.20;55.50
51029;DHT22;37054;52.054;8.600;2023-06-22T01:11:16;22.10;55.40
51029;DHT22;37054;52.054;8.600;2023-06-22T01:13:57;22.10;55.40
51029;DHT22;37054;52.054;8.600;2023-06-22T01:16:31;22.10;55.40
51029;DHT22;37054;52.054;8.600;2023-06-22T01:19:13;22.00;55.40
51029;DHT22;37054;52.054;8.600;2023-06-22T01:21:41;22.00;55.40
51029;DHT22;37054;52.054;8.600;2023-06-22T01:24:23;22.00;55.40
51029;DHT22;37054;52.054;8.600;2023-06-22T01:29:29;22.00;55.50
51029;DHT22;37054;52.054;8.600;2023-06-22T01:31:56;22.00;55.50
51029;DHT22;37054;52.054;8.600;2023-06-22T01:34:22;22.00;55.50
51029;DHT22;37054;52.054;8.600;2023-06-22T01:36:48;21.90;55.70
51029;DHT22;37054;52.054;8.600;2023-06-22T01:39:14;21.90;55.80
51029;DHT22;37054;52.054;8.600;2023-06-22T01:41:40;21.90;55.80
51029;DHT22;37054;52.054;8.600;2023-06-22T01:44:07;22.00;55.80
51029;DHT22;37054;52.054;8.600;2023-06-22T01:46:34;21.90;55.80
51029;DHT22;37054;52.054;8.600;2023-06-22T01:49:00;21.90;55.90
51029;DHT22;37054;52.054;8.600;2023-06-22T01:51:25;21.90;55.80
51029;DHT22;37054;52.054;8.600;2023-06-22T01:53:51;22.00;55.80
51029;DHT22;37054;52.054;8.600;2023-06-22T01:56:16;21.90;55.90
51029;DHT22;37054;52.054;8.600;2023-06-22T01:58:45;22.00;56.00
51029;DHT22;37054;52.054;8.600;2023-06-22T02:01:12;22.00;56.00
51029;DHT22;37054;52.054;8.600;2023-06-22T02:03:47;22.00;56.20
51029;DHT22;37054;52.054;8.600;2023-06-22T02:06:15;22.00;56.10
51029;DHT22;37054;52.054;8.600;2023-06-22T02:08:41;22.00;56.00
51029;DHT22;37054;52.054;8.600;2023-06-22T02:11:09;21.90;56.00
51029;DHT22;37054;52.054;8.600;2023-06-22T02:13:36;21.90;55.90
51029;DHT22;37054;52.054;8.600;2023-06-22T02:16:03;21.90;56.10
51029;DHT22;37054;52.054;8.600;2023-06-22T02:18:28;21.90;56.20
51029;DHT22;37054;52.054;8.600;2023-06-22T02:20:54;21.80;56.20
51029;DHT22;37054;52.054;8.600;2023-06-22T02:23:19;21.80;56.20
51029;DHT22;37054;52.054;8.600;2023-06-22T02:25:45;21.70;56.20
51029;DHT22;37054;52.054;8.600;2023-06-22T02:28:11;21.80;56.30
51029;DHT22;37054;52.054;8.600;2023-06-22T02:30:36;21.70;56.30
51029;DHT22;37054;52.054;8.600;2023-06-22T02:33:02;21.70;56.50
51029;DHT22;37054;52.054;8.600;2023-06-22T02:35:27;21.60;56.50
51029;DHT22;37054;52.054;8.600;2023-06-22T02:37:57;21.60;56.50
51029;DHT22;37054;52.054;8.600;2023-06-22T02:40:23;21.60;56.60
51029;DHT22;37054;52.054;8.600;2023-06-22T02:42:48;21.60;56.60
51029;DHT22;37054;52.054;8.600;2023-06-22T02:45:13;21.70;56.90
51029;DHT22;37054;52.054;8.600;2023-06-22T02:47:39;21.70;56.90
51029;DHT22;37054;52.054;8.600;2023-06-22T02:50:04;21.70;56.80
51029;DHT22;37054;52.054;8.600;2023-06-22T02:52:30;21.80;56.90
51029;DHT22;37054;52.054;8.600;2023-06-22T02:54:55;21.70;56.90
51029;DHT22;37054;52.054;8.600;2023-06-22T02:57:21;21.80;56.80
51029;DHT22;37054;52.054;8.600;2023-06-22T02:59:46;21.80;56.80
51029;DHT22;37054;52.054;8.600;2023-06-22T03:02:12;21.80;56.80
51029;DHT22;37054;52.054;8.600;2023-06-22T03:04:37;21.80;56.70
51029;DHT22;37054;52.054;8.600;2023-06-22T03:07:03;21.80;56.70
51029;DHT22;37054;52.054;8.600;2023-06-22T03:09:28;21.80;56.70
51029;DHT22;37054;52.054;8.600;2023-06-22T03:11:54;21.80;56.70
51029;DHT22;37054;52.054;8.600;2023-06-22T03:14:19;21.80;56.60
51029;DHT22;37054;52.054;8.600;2023-06-22T03:16:45;21.80;56.60
51029;DHT22;37054;52.054;8.600;2023-06-22T03:19:10;21.80;56.60
51029;DHT22;37054;52.054;8.600;2023-06-22T03:21:37;21.80;56.60
51029;DHT22;37054;52.054;8.600;2023-06-22T03:24:04;21.80;56.70
51029;DHT22;37054;52.054;8.600;2023-06-22T03:26:29;21.70;56.60
51029;DHT22;37054;52.054;8.600;2023-06-22T03:28:55;21.70;56.60
51029;DHT22;37054;52.054;8.600;2023-06-22T03:31:20;21.70;56.60
51029;DHT22;37054;52.054;8.600;2023-06-22T03:33:47;21.70;56.60
51029;DHT22;37054;52.054;8.600;2023-06-22T03:36:13;21.70;56.80
51029;DHT22;37054;52.054;8.600;2023-06-22T03:38:39;21.70;57.00
51029;DHT22;37054;52.054;8.600;2023-06-22T03:41:04;21.80;57.10
51029;DHT22;37054;52.054;8.600;2023-06-22T03:43:29;21.80;57.20
51029;DHT22;37054;52.054;8.600;2023-06-22T03:45:55;21.80;57.10
51029;DHT22;37054;52.054;8.600;2023-06-22T03:48:20;21.90;57.20
51029;DHT22;37054;52.054;8.600;2023-06-22T03:50:46;22.00;57.30
51029;DHT22;37054;52.054;8.600;2023-06-22T03:53:11;22.10;57.40
51029;DHT22;37054;52.054;8.600;2023-06-22T03:55:42;22.20;57.50
51029;DHT22;37054;52.054;8.600;2023-06-22T03:58:12;22.40;57.70
51029;DHT22;37054;52.054;8.600;2023-06-22T04:00:38;22.70;57.70
51029;DHT22;37054;52.054;8.600;2023-06-22T04:03:03;22.80;57.60
51029;DHT22;37054;52.054;8.600;2023-06-22T04:05:29;23.00;57.50
51029;DHT22;37054;52.054;8.600;2023-06-22T04:07:54;23.10;57.40
51029;DHT22;37054;52.054;8.600;2023-06-22T04:10:19;23.20;57.30
51029;DHT22;37054;52.054;8.600;2023-06-22T04:12:45;23.30;57.20
51029;DHT22;37054;52.054;8.600;2023-06-22T04:15:10;23.30;57.10
51029;DHT22;37054;52.054;8.600;2023-06-22T04:17:37;23.40;56.90
51029;DHT22;37054;52.054;8.600;2023-06-22T04:20:02;23.40;56.80
51029;DHT22;37054;52.054;8.600;2023-06-22T04:22:29;23.40;56.80
51029;DHT22;37054;52.054;8.600;2023-06-22T04:24:54;23.50;56.80
51029;DHT22;37054;52.054;8.600;2023-06-22T04:27:20;23.50;56.60
51029;DHT22;37054;52.054;8.600;2023-06-22T04:29:48;23.60;56.60
51029;DHT22;37054;52.054;8.600;2023-06-22T04:32:17;23.70;56.60
51029;DHT22;37054;52.054;8.600;2023-06-22T04:34:42;23.80;56.50
51029;DHT22;37054;52.054;8.600;2023-06-22T04:37:08;23.80;56.50
51029;DHT22;37054;52.054;8.600;2023-06-22T04:39:33;23.90;56.40
51029;DHT22;37054;52.054;8.600;2023-06-22T04:41:59;24.10;56.60
51029;DHT22;37054;52.054;8.600;2023-06-22T04:44:27;24.30;56.60
51029;DHT22;37054;52.054;8.600;2023-06-22T04:46:53;24.50;56.40
51029;DHT22;37054;52.054;8.600;2023-06-22T04:49:19;24.60;56.20
51029;DHT22;37054;52.054;8.600;2023-06-22T04:51:45;24.70;55.90
51029;DHT22;37054;52.054;8.600;2023-06-22T04:54:11;24.80;55.90
51029;DHT22;37054;52.054;8.600;2023-06-22T04:56:36;25.00;55.80
51029;DHT22;37054;52.054;8.600;2023-06-22T04:59:02;25.10;55.60
51029;DHT22;37054;52.054;8.600;2023-06-22T05:01:28;25.30;55.40
51029;DHT22;37054;52.054;8.600;2023-06-22T05:03:56;25.40;55.20
51029;DHT22;37054;52.054;8.600;2023-06-22T05:06:24;25.60;55.00
51029;DHT22;37054;52.054;8.600;2023-06-22T05:08:53;25.80;54.90
51029;DHT22;37054;52.054;8.600;2023-06-22T05:11:25;26.10;54.70
51029;DHT22;37054;52.054;8.600;2023-06-22T05:13:51;26.20;54.30
51029;DHT22;37054;52.054;8.600;2023-06-22T05:16:16;26.50;53.90
51029;DHT22;37054;52.054;8.600;2023-06-22T05:18:42;26.70;53.80
51029;DHT22;37054;52.054;8.600;2023-06-22T05:21:08;27.20;54.30
51029;DHT22;37054;52.054;8.600;2023-06-22T05:23:34;27.70;53.80
51029;DHT22;37054;52.054;8.600;2023-06-22T05:25:59;28.10;53.10
51029;DHT22;37054;52.054;8.600;2023-06-22T05:28:25;28.40;51.90
51029;DHT22;37054;52.054;8.600;2023-06-22T05:30:50;28.50;51.10
51029;DHT22;37054;52.054;8.600;2023-06-22T05:33:16;28.70;50.40
51029;DHT22;37054;52.054;8.600;2023-06-22T05:35:41;28.70;49.90
51029;DHT22;37054;52.054;8.600;2023-06-22T05:38:07;28.80;49.80
51029;DHT22;37054;52.054;8.600;2023-06-22T05:40:32;28.90;49.40
51029;DHT22;37054;52.054;8.600;2023-06-22T05:42:58;29.00;49.00
51029;DHT22;37054;52.054;8.600;2023-06-22T05:45:25;29.00;48.60
51029;DHT22;37054;52.054;8.600;2023-06-22T05:47:51;29.00;48.40
51029;DHT22;37054;52.054;8.600;2023-06-22T05:50:16;29.10;48.30
51029;DHT22;37054;52.054;8.600;2023-06-22T05:52:42;29.00;47.80
51029;DHT22;37054;52.054;8.600;2023-06-22T05:55:07;29.00;47.70
51029;DHT22;37054;52.054;8.600;2023-06-22T05:57:35;29.00;47.50
51029;DHT22;37054;52.054;8.600;2023-06-22T06:00:00;29.00;47.80
51029;DHT22;37054;52.054;8.600;2023-06-22T06:02:25;29.30;48.50
51029;DHT22;37054;52.054;8.600;2023-06-22T06:04:51;29.80;48.60
51029;DHT22;37054;52.054;8.600;2023-06-22T06:07:18;30.20;47.60
51029;DHT22;37054;52.054;8.600;2023-06-22T06:09:43;30.40;46.90
51029;DHT22;37054;52.054;8.600;2023-06-22T06:12:09;30.60;46.20
51029;DHT22;37054;52.054;8.600;2023-06-22T06:14:34;30.70;45.80
51029;DHT22;37054;52.054;8.600;2023-06-22T06:16:59;30.90;45.40
51029;DHT22;37054;52.054;8.600;2023-06-22T06:19:25;31.10;45.30
51029;DHT22;37054;52.054;8.600;2023-06-22T06:21:50;31.60;45.30
51029;DHT22;37054;52.054;8.600;2023-06-22T06:24:16;32.10;44.40
51029;DHT22;37054;52.054;8.600;2023-06-22T06:26:41;32.70;43.90
51029;DHT22;37054;52.054;8.600;2023-06-22T06:29:07;33.30;43.20
51029;DHT22;37054;52.054;8.600;2023-06-22T06:31:32;34.00;42.60
51029;DHT22;37054;52.054;8.600;2023-06-22T06:33:58;34.70;41.70
51029;DHT22;37054;52.054;8.600;2023-06-22T06:36:24;35.40;40.60
51029;DHT22;37054;52.054;8.600;2023-06-22T06:38:49;35.80;39.10
51029;DHT22;37054;52.054;8.600;2023-06-22T06:41:15;36.20;38.00
51029;DHT22;37054;52.054;8.600;2023-06-22T06:43:40;36.40;37.30
51029;DHT22;37054;52.054;8.600;2023-06-22T06:46:08;36.50;36.10
51029;DHT22;37054;52.054;8.600;2023-06-22T06:48:33;36.60;35.70
51029;DHT22;37054;52.054;8.600;2023-06-22T06:50:59;36.50;35.50
51029;DHT22;37054;52.054;8.600;2023-06-22T06:53:24;36.40;35.40
51029;DHT22;37054;52.054;8.600;2023-06-22T06:55:49;36.30;35.30
51029;DHT22;37054;52.054;8.600;2023-06-22T06:58:15;36.10;35.40
51029;DHT22;37054;52.054;8.600;2023-06-22T07:00:41;36.10;35.30
51029;DHT22;37054;52.054;8.600;2023-06-22T07:03:08;36.00;35.30
51029;DHT22;37054;52.054;8.600;2023-06-22T07:05:34;36.00;35.20
51029;DHT22;37054;52.054;8.600;2023-06-22T07:08:00;35.80;35.30
51029;DHT22;37054;52.054;8.600;2023-06-22T07:10:26;35.70;35.40
51029;DHT22;37054;52.054;8.600;2023-06-22T07:12:51;35.50;35.60
51029;DHT22;37054;52.054;8.600;2023-06-22T07:15:17;35.30;35.80
51029;DHT22;37054;52.054;8.600;2023-06-22T07:17:42;35.20;35.90
51029;DHT22;37054;52.054;8.600;2023-06-22T07:20:08;35.00;36.00
51029;DHT22;37054;52.054;8.600;2023-06-22T07:22:40;34.80;36.20
51029;DHT22;37054;52.054;8.600;2023-06-22T07:25:06;34.50;36.40
51029;DHT22;37054;52.054;8.600;2023-06-22T07:27:38;34.30;36.70
51029;DHT22;37054;52.054;8.600;2023-06-22T07:30:04;34.20;36.80
51029;DHT22;37054;52.054;8.600;2023-06-22T07:32:29;33.90;37.10
51029;DHT22;37054;52.054;8.600;2023-06-22T07:34:55;33.70;37.50
51029;DHT22;37054;52.054;8.600;2023-06-22T07:37:20;33.40;37.70
51029;DHT22;37054;52.054;8.600;2023-06-22T07:39:46;33.20;38.10
51029;DHT22;37054;52.054;8.600;2023-06-22T07:42:11;33.00;38.40
51029;DHT22;37054;52.054;8.600;2023-06-22T07:44:37;32.80;38.70
51029;DHT22;37054;52.054;8.600;2023-06-22T07:47:02;32.80;39.00
51029;DHT22;37054;52.054;8.600;2023-06-22T07:49:28;32.70;39.20
51029;DHT22;37054;52.054;8.600;2023-06-22T07:51:54;32.60;39.20
51029;DHT22;37054;52.054;8.600;2023-06-22T07:54:19;32.60;39.30
51029;DHT22;37054;52.054;8.600;2023-06-22T07:56:46;32.60;39.20
51029;DHT22;37054;52.054;8.600;2023-06-22T07:59:11;32.70;39.20
51029;DHT22;37054;52.054;8.600;2023-06-22T08:01:37;32.60;39.10
51029;DHT22;37054;52.054;8.600;2023-06-22T08:04:02;32.50;39.20
51029;DHT22;37054;52.054;8.600;2023-06-22T08:06:29;32.50;39.20
51029;DHT22;37054;52.054;8.600;2023-06-22T08:08:55;32.40;39.20
51029;DHT22;37054;52.054;8.600;2023-06-22T08:11:24;32.20;39.20
51029;DHT22;37054;52.054;8.600;2023-06-22T08:13:50;32.00;39.50
51029;DHT22;37054;52.054;8.600;2023-06-22T08:16:16;31.90;40.00
51029;DHT22;37054;52.054;8.600;2023-06-22T08:18:41;31.80;40.40
51029;DHT22;37054;52.054;8.600;2023-06-22T08:21:07;31.80;40.60
51029;DHT22;37054;52.054;8.600;2023-06-22T08:23:32;31.80;40.60
51029;DHT22;37054;52.054;8.600;2023-06-22T08:25:58;31.80;40.80
51029;DHT22;37054;52.054;8.600;2023-06-22T08:28:23;31.80;41.00
51029;DHT22;37054;52.054;8.600;2023-06-22T08:30:49;31.80;41.10
51029;DHT22;37054;52.054;8.600;2023-06-22T08:33:14;31.80;41.20
51029;DHT22;37054;52.054;8.600;2023-06-22T08:35:39;31.90;41.30
51029;DHT22;37054;52.054;8.600;2023-06-22T08:38:05;32.20;41.60
51029;DHT22;37054;52.054;8.600;2023-06-22T08:40:30;32.40;41.70
51029;DHT22;37054;52.054;8.600;2023-06-22T08:42:56;32.60;42.00
51029;DHT22;37054;52.054;8.600;2023-06-22T08:45:21;32.80;41.60
51029;DHT22;37054;52.054;8.600;2023-06-22T08:47:47;32.80;41.80
51029;DHT22;37054;52.054;8.600;2023-06-22T08:50:12;33.10;41.80
51029;DHT22;37054;52.054;8.600;2023-06-22T08:52:38;33.40;41.00
51029;DHT22;37054;52.054;8.600;2023-06-22T08:55:06;33.70;40.50
51029;DHT22;37054;52.054;8.600;2023-06-22T08:57:32;34.00;39.60
51029;DHT22;37054;52.054;8.600;2023-06-22T08:59:58;34.20;39.10
51029;DHT22;37054;52.054;8.600;2023-06-22T09:02:27;34.40;38.40
51029;DHT22;37054;52.054;8.600;2023-06-22T09:04:56;34.50;37.80
51029;DHT22;37054;52.054;8.600;2023-06-22T09:07:23;34.50;37.50
51029;DHT22;37054;52.054;8.600;2023-06-22T09:09:50;34.40;37.50
51029;DHT22;37054;52.054;8.600;2023-06-22T09:12:16;34.40;37.70
51029;DHT22;37054;52.054;8.600;2023-06-22T09:14:41;34.40;37.50
51029;DHT22;37054;52.054;8.600;2023-06-22T09:17:07;34.40;37.50
51029;DHT22;37054;52.054;8.600;2023-06-22T09:19:32;34.60;37.40
51029;DHT22;37054;52.054;8.600;2023-06-22T09:21:58;34.50;37.10
51029;DHT22;37054;52.054;8.600;2023-06-22T09:24:23;34.80;37.70
51029;DHT22;37054;52.054;8.600;2023-06-22T09:26:49;35.00;37.20
51029;DHT22;37054;52.054;8.600;2023-06-22T09:29:15;35.20;37.00
51029;DHT22;37054;52.054;8.600;2023-06-22T09:31:41;35.30;36.60
51029;DHT22;37054;52.054;8.600;2023-06-22T09:34:06;35.40;36.40
51029;DHT22;37054;52.054;8.600;2023-06-22T09:36:32;35.40;36.20
51029;DHT22;37054;52.054;8.600;2023-06-22T09:38:57;35.50;36.10
51029;DHT22;37054;52.054;8.600;2023-06-22T09:41:24;35.50;35.80
51029;DHT22;37054;52.054;8.600;2023-06-22T09:43:49;35.30;35.70
51029;DHT22;37054;52.054;8.600;2023-06-22T09:46:15;35.30;35.80
51029;DHT22;37054;52.054;8.600;2023-06-22T09:48:41;35.20;35.60
51029;DHT22;37054;52.054;8.600;2023-06-22T09:51:06;35.10;35.70
51029;DHT22;37054;52.054;8.600;2023-06-22T09:53:31;35.10;35.60
51029;DHT22;37054;52.054;8.600;2023-06-22T09:55:57;35.10;35.80
51029;DHT22;37054;52.054;8.600;2023-06-22T09:58:23;35.30;36.00
51029;DHT22;37054;52.054;8.600;2023-06-22T10:00:48;35.30;35.40
51029;DHT22;37054;52.054;8.600;2023-06-22T10:03:14;35.20;35.60
51029;DHT22;37054;52.054;8.600;2023-06-22T10:05:39;35.10;35.50
51029;DHT22;37054;52.054;8.600;2023-06-22T10:08:04;35.00;36.00
51029;DHT22;37054;52.054;8.600;2023-06-22T10:10:30;35.00;36.20
51029;DHT22;37054;52.054;8.600;2023-06-22T10:12:56;35.20;36.40
51029;DHT22;37054;52.054;8.600;2023-06-22T10:15:22;35.40;36.40
51029;DHT22;37054;52.054;8.600;2023-06-22T10:17:48;35.80;36.10
51029;DHT22;37054;52.054;8.600;2023-06-22T10:20:13;36.00;35.90
51029;DHT22;37054;52.054;8.600;2023-06-22T10:22:40;36.30;35.70
51029;DHT22;37054;52.054;8.600;2023-06-22T10:25:05;36.70;35.60
51029;DHT22;37054;52.054;8.600;2023-06-22T10:27:31;37.00;34.90
51029;DHT22;37054;52.054;8.600;2023-06-22T10:29:57;37.30;34.90
51029;DHT22;37054;52.054;8.600;2023-06-22T10:32:22;37.60;34.30
51029;DHT22;37054;52.054;8.600;2023-06-22T10:34:48;37.70;34.00
51029;DHT22;37054;52.054;8.600;2023-06-22T10:37:13;37.80;33.60
51029;DHT22;37054;52.054;8.600;2023-06-22T10:39:39;37.80;33.70
51029;DHT22;37054;52.054;8.600;2023-06-22T10:42:04;37.70;33.20
51029;DHT22;37054;52.054;8.600;2023-06-22T10:44:30;37.50;33.40
51029;DHT22;37054;52.054;8.600;2023-06-22T10:46:55;37.40;33.70
51029;DHT22;37054;52.054;8.600;2023-06-22T10:49:20;37.50;33.70
51029;DHT22;37054;52.054;8.600;2023-06-22T10:51:46;37.60;33.70
51029;DHT22;37054;52.054;8.600;2023-06-22T10:54:11;37.90;33.60
51029;DHT22;37054;52.054;8.600;2023-06-22T10:56:39;38.30;33.30
51029;DHT22;37054;52.054;8.600;2023-06-22T10:59:05;38.90;33.00
51029;DHT22;37054;52.054;8.600;2023-06-22T11:01:30;39.30;32.00
51029;DHT22;37054;52.054;8.600;2023-06-22T11:03:56;39.50;31.40
51029;DHT22;37054;52.054;8.600;2023-06-22T11:06:22;39.40;31.10
51029;DHT22;37054;52.054;8.600;2023-06-22T11:08:47;39.10;31.20
51029;DHT22;37054;52.054;8.600;2023-06-22T11:11:13;38.70;31.70
51029;DHT22;37054;52.054;8.600;2023-06-22T11:13:38;38.40;32.10
51029;DHT22;37054;52.054;8.600;2023-06-22T11:16:04;38.20;32.50
51029;DHT22;37054;52.054;8.600;2023-06-22T11:18:30;38.00;32.80
51029;DHT22;37054;52.054;8.600;2023-06-22T11:20:56;37.80;33.00
51029;DHT22;37054;52.054;8.600;2023-06-22T11:23:21;37.70;32.90
51029;DHT22;37054;52.054;8.600;2023-06-22T11:25:47;37.70;32.90
51029;DHT22;37054;52.054;8.600;2023-06-22T11:28:12;37.80;33.10
51029;DHT22;37054;52.054;8.600;2023-06-22T11:30:38;37.90;32.90
51029;DHT22;37054;52.054;8.600;2023-06-22T11:33:03;38.00;32.90
51029;DHT22;37054;52.054;8.600;2023-06-22T11:35:29;38.10;32.70
51029;DHT22;37054;52.054;8.600;2023-06-22T11:37:54;38.20;32.50
51029;DHT22;37054;52.054;8.600;2023-06-22T11:40:21;38.20;32.30
51029;DHT22;37054;52.054;8.600;2023-06-22T11:42:48;38.30;32.20
51029;DHT22;37054;52.054;8.600;2023-06-22T11:45:13;38.30;32.20
51029;DHT22;37054;52.054;8.600;2023-06-22T11:47:39;38.30;32.00
51029;DHT22;37054;52.054;8.600;2023-06-22T11:50:04;38.20;31.80
51029;DHT22;37054;52.054;8.600;2023-06-22T11:52:30;38.00;32.10
51029;DHT22;37054;52.054;8.600;2023-06-22T11:54:55;37.80;32.40
51029;DHT22;37054;52.054;8.600;2023-06-22T11:57:21;37.70;32.20
51029;DHT22;37054;52.054;8.600;2023-06-22T11:59:46;37.30;32.10
51029;DHT22;37054;52.054;8.600;2023-06-22T12:02:12;37.00;32.70
51029;DHT22;37054;52.054;8.600;2023-06-22T12:04:37;36.70;33.00
51029;DHT22;37054;52.054;8.600;2023-06-22T12:07:03;36.30;33.60
51029;DHT22;37054;52.054;8.600;2023-06-22T12:09:28;36.10;33.90
51029;DHT22;37054;52.054;8.600;2023-06-22T12:11:54;35.90;34.20
51029;DHT22;37054;52.054;8.600;2023-06-22T12:14:19;35.80;34.40
51029;DHT22;37054;52.054;8.600;2023-06-22T12:16:45;35.70;34.80
51029;DHT22;37054;52.054;8.600;2023-06-22T12:19:10;35.70;34.80
51029;DHT22;37054;52.054;8.600;2023-06-22T12:21:37;35.60;34.70
51029;DHT22;37054;52.054;8.600;2023-06-22T12:24:02;35.40;34.80
51029;DHT22;37054;52.054;8.600;2023-06-22T12:26:28;35.20;35.20
51029;DHT22;37054;52.054;8.600;2023-06-22T12:28:53;35.00;35.40
51029;DHT22;37054;52.054;8.600;2023-06-22T12:31:18;34.80;35.70
51029;DHT22;37054;52.054;8.600;2023-06-22T12:33:44;34.70;35.90
51029;DHT22;37054;52.054;8.600;2023-06-22T12:36:09;34.50;36.50
51029;DHT22;37054;52.054;8.600;2023-06-22T12:38:35;34.30;36.60
51029;DHT22;37054;52.054;8.600;2023-06-22T12:41:00;34.10;36.90
51029;DHT22;37054;52.054;8.600;2023-06-22T12:43:26;33.90;37.50
51029;DHT22;37054;52.054;8.600;2023-06-22T12:45:51;33.80;38.10
51029;DHT22;37054;52.054;8.600;2023-06-22T12:48:17;33.50;39.30
51029;DHT22;37054;52.054;8.600;2023-06-22T12:50:42;33.00;43.50
51029;DHT22;37054;52.054;8.600;2023-06-22T12:53:07;32.30;47.40
51029;DHT22;37054;52.054;8.600;2023-06-22T12:55:33;31.70;49.70
51029;DHT22;37054;52.054;8.600;2023-06-22T12:57:58;31.10;51.70
51029;DHT22;37054;52.054;8.600;2023-06-22T13:00:24;30.80;53.50
51029;DHT22;37054;52.054;8.600;2023-06-22T13:02:49;30.40;54.80
51029;DHT22;37054;52.054;8.600;2023-06-22T13:05:15;30.10;55.90
51029;DHT22;37054;52.054;8.600;2023-06-22T13:07:40;29.90;56.90
51029;DHT22;37054;52.054;8.600;2023-06-22T13:10:08;29.70;58.10
51029;DHT22;37054;52.054;8.600;2023-06-22T13:12:33;29.50;58.60
51029;DHT22;37054;52.054;8.600;2023-06-22T13:14:59;29.40;59.90
51029;DHT22;37054;52.054;8.600;2023-06-22T13:17:24;29.20;60.70
51029;DHT22;37054;52.054;8.600;2023-06-22T13:19:49;28.90;61.50
51029;DHT22;37054;52.054;8.600;2023-06-22T13:22:30;28.60;62.30
51029;DHT22;37054;52.054;8.600;2023-06-22T13:24:56;28.30;63.10
51029;DHT22;37054;52.054;8.600;2023-06-22T13:27:22;28.10;64.50
51029;DHT22;37054;52.054;8.600;2023-06-22T13:29:47;28.00;65.20
51029;DHT22;37054;52.054;8.600;2023-06-22T13:32:13;27.80;65.90
51029;DHT22;37054;52.054;8.600;2023-06-22T13:34:38;27.80;66.40
51029;DHT22;37054;52.054;8.600;2023-06-22T13:37:04;27.70;66.90
51029;DHT22;37054;52.054;8.600;2023-06-22T13:39:29;27.60;67.30
51029;DHT22;37054;52.054;8.600;2023-06-22T13:41:54;27.60;67.60
51029;DHT22;37054;52.054;8.600;2023-06-22T13:44:20;27.50;67.80
51029;DHT22;37054;52.054;8.600;2023-06-22T13:46:47;27.40;68.10
51029;DHT22;37054;52.054;8.600;2023-06-22T13:49:13;27.20;68.90
51029;DHT22;37054;52.054;8.600;2023-06-22T13:51:38;27.10;69.50
51029;DHT22;37054;52.054;8.600;2023-06-22T13:54:03;27.00;70.00
51029;DHT22;37054;52.054;8.600;2023-06-22T13:56:29;26.90;70.30
51029;DHT22;37054;52.054;8.600;2023-06-22T13:58:54;26.80;70.30
51029;DHT22;37054;52.054;8.600;2023-06-22T14:01:20;26.50;70.00
51029;DHT22;37054;52.054;8.600;2023-06-22T14:03:46;26.30;70.70
51029;DHT22;37054;52.054;8.600;2023-06-22T14:06:12;26.20;71.10
51029;DHT22;37054;52.054;8.600;2023-06-22T14:08:37;26.00;71.00
51029;DHT22;37054;52.054;8.600;2023-06-22T14:11:03;25.80;71.20
51029;DHT22;37054;52.054;8.600;2023-06-22T14:13:28;25.80;71.50
51029;DHT22;37054;52.054;8.600;2023-06-22T14:15:54;25.60;71.90
51029;DHT22;37054;52.054;8.600;2023-06-22T14:18:19;25.50;72.00
51029;DHT22;37054;52.054;8.600;2023-06-22T14:20:45;25.40;72.10
51029;DHT22;37054;52.054;8.600;2023-06-22T14:23:11;25.30;72.50
51029;DHT22;37054;52.054;8.600;2023-06-22T14:25:36;25.30;72.50
51029;DHT22;37054;52.054;8.600;2023-06-22T14:28:02;25.30;72.40
51029;DHT22;37054;52.054;8.600;2023-06-22T14:30:27;25.20;72.50
51029;DHT22;37054;52.054;8.600;2023-06-22T14:32:53;25.10;72.80
51029;DHT22;37054;52.054;8.600;2023-06-22T14:35:18;25.10;72.90
51029;DHT22;37054;52.054;8.600;2023-06-22T14:37:44;25.00;73.00
51029;DHT22;37054;52.054;8.600;2023-06-22T14:40:09;25.00;73.20
51029;DHT22;37054;52.054;8.600;2023-06-22T14:42:35;25.00;73.10
51029;DHT22;37054;52.054;8.600;2023-06-22T14:45:01;25.00;73.10
51029;DHT22;37054;52.054;8.600;2023-06-22T14:47:26;25.00;72.80
51029;DHT22;37054;52.054;8.600;2023-06-22T14:49:51;24.90;72.60
51029;DHT22;37054;52.054;8.600;2023-06-22T14:52:17;24.80;72.60
51029;DHT22;37054;52.054;8.600;2023-06-22T14:54:42;24.80;72.80
51029;DHT22;37054;52.054;8.600;2023-06-22T14:57:08;24.80;72.80
51029;DHT22;37054;52.054;8.600;2023-06-22T14:59:33;24.70;72.80
51029;DHT22;37054;52.054;8.600;2023-06-22T15:01:59;24.70;72.90
51029;DHT22;37054;52.054;8.600;2023-06-22T15:04:24;24.60;72.90
51029;DHT22;37054;52.054;8.600;2023-06-22T15:06:51;24.60;73.10
51029;DHT22;37054;52.054;8.600;2023-06-22T15:09:16;24.70;73.40
51029;DHT22;37054;52.054;8.600;2023-06-22T15:11:42;24.70;73.80
51029;DHT22;37054;52.054;8.600;2023-06-22T15:14:07;24.80;73.70
51029;DHT22;37054;52.054;8.600;2023-06-22T15:16:33;25.00;73.60
51029;DHT22;37054;52.054;8.600;2023-06-22T15:18:58;25.10;73.80
51029;DHT22;37054;52.054;8.600;2023-06-22T15:21:24;25.30;73.60
51029;DHT22;37054;52.054;8.600;2023-06-22T15:23:50;25.50;73.80